createdAt,value
2022-08-26T13:07:20.411Z,24.93
2022-08-26T13:09:47.851Z,24.70
2022-08-26T13:12:37.493Z,24.93
2022-08-26T13:15:06.367Z,24.44
2022-08-26T13:17:36.081Z,25.00
2022-08-26T13:20:04.669Z,24.72
2022-08-26T13:22:32.190Z,24.13
2022-08-26T13:24:59.609Z,23.65
2022-08-26T13:27:27.779Z,23.31
2022-08-26T13:29:57.353Z,23.04
2022-08-26T13:32:25.167Z,24.12
2022-08-26T13:34:56.360Z,24.56
2022-08-26T13:37:24.342Z,23.59
2022-08-26T13:40:02.169Z,24.47
2022-08-26T13:42:29.681Z,24.20
2022-08-26T13:44:58.322Z,23.46
2022-08-26T13:47:27.641Z,24.41
2022-08-26T13:49:55.613Z,23.14
2022-08-26T13:52:30.300Z,22.98
2022-08-26T13:55:00.528Z,23.07
2022-08-26T13:57:30.447Z,23.46
2022-08-26T13:59:59.666Z,23.96
2022-08-26T14:02:28.271Z,23.25
2022-08-26T14:04:56.171Z,23.01
2022-08-26T14:07:23.704Z,22.83
2022-08-26T14:09:51.451Z,22.85
2022-08-26T14:12:18.609Z,23.18
2022-08-26T14:14:45.728Z,23.07
2022-08-26T14:17:18.142Z,23.28
2022-08-26T14:19:47.051Z,23.27
2022-08-26T14:22:16.235Z,22.95
2022-08-26T14:24:44.622Z,23.74
2022-08-26T14:27:12.612Z,23.98
2022-08-26T14:29:40.912Z,23.37
2022-08-26T14:32:21.959Z,23.62
2022-08-26T14:34:49.835Z,23.93
2022-08-26T14:37:18.149Z,24.01
2022-08-26T14:39:46.064Z,25.33
2022-08-26T14:42:16.770Z,25.42
2022-08-26T14:44:46.193Z,25.41
2022-08-26T14:47:13.397Z,26.42
2022-08-26T14:49:40.571Z,28.21
2022-08-26T14:52:07.617Z,28.60
2022-08-26T14:54:34.808Z,29.01
2022-08-26T14:57:05.856Z,30.04
2022-08-26T14:59:36.785Z,29.23
2022-08-26T15:02:05.889Z,29.41
2022-08-26T15:04:33.528Z,29.06
2022-08-26T15:07:01.505Z,29.24
2022-08-26T15:09:30.569Z,29.07
2022-08-26T15:11:57.740Z,29.25
2022-08-26T15:14:27.649Z,27.45
2022-08-26T15:16:58.022Z,27.30
2022-08-26T15:19:27.258Z,28.04
2022-08-26T15:21:55.559Z,28.72
2022-08-26T15:24:25.035Z,29.95
2022-08-26T15:26:53.325Z,29.05
2022-08-26T15:29:20.975Z,29.56
2022-08-26T15:31:49.045Z,30.36
2022-08-26T15:34:17.270Z,29.58
2022-08-26T15:36:46.703Z,29.10
2022-08-26T15:39:15.702Z,29.48
2022-08-26T15:41:42.917Z,30.34
2022-08-26T15:44:12.030Z,30.24
2022-08-26T15:46:39.621Z,29.78
2022-08-26T15:49:07.397Z,30.42
2022-08-26T15:51:45.779Z,30.13
2022-08-26T15:54:14.471Z,30.16
2022-08-26T15:56:43.480Z,30.38
2022-08-26T15:59:11.983Z,30.22
2022-08-26T16:01:39.526Z,31.09
2022-08-26T16:04:07.743Z,30.50
2022-08-26T16:06:37.341Z,31.43
2022-08-26T16:09:05.585Z,31.22
2022-08-26T16:11:34.355Z,31.83
2022-08-26T16:14:01.595Z,31.88
2022-08-26T16:16:28.763Z,31.31
2022-08-26T16:18:55.932Z,32.03
2022-08-26T16:21:25.820Z,32.82
2022-08-26T16:23:52.875Z,33.28
2022-08-26T16:26:25.273Z,33.78
2022-08-26T16:28:52.886Z,33.82
2022-08-26T16:31:20.144Z,33.38
2022-08-26T16:33:47.873Z,34.04
2022-08-26T16:36:16.576Z,34.15
2022-08-26T16:38:50.317Z,34.73
2022-08-26T16:41:17.916Z,34.36
2022-08-26T16:43:45.480Z,35.27
2022-08-26T16:46:17.305Z,35.77
2022-08-26T16:48:45.482Z,36.51
2022-08-26T16:51:14.070Z,36.68
2022-08-26T16:53:41.305Z,37.21
2022-08-26T16:56:13.511Z,38.23
2022-08-26T16:58:41.066Z,38.11
2022-08-26T17:01:08.470Z,38.40
2022-08-26T17:03:35.664Z,39.00
2022-08-26T17:06:03.495Z,39.10
2022-08-26T17:08:30.769Z,39.80
2022-08-26T17:11:00.757Z,40.71
2022-08-26T17:13:35.348Z,40.95
2022-08-26T17:16:05.233Z,42.21
2022-08-26T17:18:33.729Z,42.37
2022-08-26T17:21:04.096Z,43.32
2022-08-26T17:23:32.032Z,43.22
2022-08-26T17:25:59.121Z,43.79
2022-08-26T17:28:26.159Z,44.88
2022-08-26T17:30:54.965Z,45.14
2022-08-26T17:33:24.700Z,45.96
2022-08-26T17:35:53.232Z,46.28
2022-08-26T17:38:21.487Z,47.01
2022-08-26T17:40:52.848Z,47.09
2022-08-26T17:43:20.029Z,47.51
2022-08-26T17:45:47.477Z,47.89
2022-08-26T17:48:14.942Z,48.26
2022-08-26T17:50:43.532Z,49.50
2022-08-26T17:53:18.734Z,49.74
2022-08-26T17:55:50.438Z,50.30
2022-08-26T17:58:20.201Z,51.06
2022-08-26T18:00:52.152Z,52.15
2022-08-26T18:03:19.414Z,52.15
2022-08-26T18:05:51.366Z,52.63
2022-08-26T18:08:19.501Z,53.91
2022-08-26T18:10:47.310Z,54.23
2022-08-26T18:13:15.199Z,54.98
2022-08-26T18:15:44.347Z,55.69
2022-08-26T18:18:13.314Z,56.70
2022-08-26T18:20:42.330Z,57.47
2022-08-26T18:23:10.106Z,57.95
2022-08-26T18:25:44.008Z,59.08
2022-08-26T18:28:11.385Z,62.42
2022-08-26T18:30:38.524Z,68.55
2022-08-26T18:33:05.726Z,71.76
2022-08-26T18:35:32.866Z,75.95
2022-08-26T18:38:10.434Z,78.74
2022-08-26T18:40:40.224Z,80.87
2022-08-26T18:43:07.639Z,83.56
2022-08-26T18:45:35.154Z,84.81
2022-08-26T18:48:03.955Z,86.69
2022-08-26T18:50:32.228Z,87.40
2022-08-26T18:52:59.342Z,90.52
2022-08-26T18:55:26.540Z,93.08
2022-08-26T18:57:53.825Z,95.45
2022-08-26T19:00:21.374Z,97.46
2022-08-26T19:02:52.011Z,98.49
2022-08-26T19:05:19.794Z,100.00
2022-08-26T19:07:47.960Z,100.00
2022-08-26T19:10:15.532Z,100.00
2022-08-26T19:12:42.910Z,100.00
2022-08-26T19:15:11.410Z,100.00
2022-08-26T19:17:38.914Z,100.00
2022-08-26T19:20:06.945Z,100.00
2022-08-26T19:22:34.245Z,100.00
2022-08-26T19:25:01.793Z,100.00
2022-08-26T19:27:30.464Z,100.00
2022-08-26T19:29:58.158Z,100.00
2022-08-26T19:32:25.893Z,100.00
2022-08-26T19:34:54.308Z,100.00
2022-08-26T19:37:21.854Z,100.00
2022-08-26T19:39:49.652Z,100.00
2022-08-26T19:42:17.692Z,100.00
2022-08-26T19:45:03.372Z,100.00
2022-08-26T19:47:30.856Z,100.00
2022-08-26T19:49:58.305Z,100.00
2022-08-26T19:52:29.891Z,100.00
2022-08-26T19:54:58.814Z,100.00
2022-08-26T19:57:26.180Z,100.00
2022-08-26T19:59:54.683Z,100.00
2022-08-26T20:02:22.181Z,100.00
2022-08-26T20:04:49.751Z,100.00
2022-08-26T20:07:18.840Z,100.00
2022-08-26T20:09:48.079Z,100.00
2022-08-26T20:12:16.382Z,100.00
2022-08-26T20:14:44.462Z,100.00
2022-08-26T20:17:12.291Z,100.00
2022-08-26T20:19:58.262Z,100.00
2022-08-26T20:22:26.256Z,100.00
2022-08-26T20:24:53.690Z,100.00
2022-08-26T20:27:27.682Z,100.00
2022-08-26T20:30:07.859Z,100.00
2022-08-26T20:32:35.733Z,100.00
2022-08-26T20:35:04.020Z,100.00
2022-08-26T20:37:31.076Z,100.00
2022-08-26T20:39:59.066Z,100.00
2022-08-26T20:42:26.809Z,100.00
2022-08-26T20:44:54.405Z,100.00
2022-08-26T20:47:22.868Z,100.00
2022-08-26T20:49:52.319Z,100.00
2022-08-26T20:52:20.142Z,100.00
2022-08-26T20:54:47.314Z,100.00
2022-08-26T20:57:14.971Z,100.00
2022-08-26T20:59:43.264Z,100.00
2022-08-26T21:02:10.454Z,100.00
2022-08-26T21:04:37.642Z,100.00
2022-08-26T21:07:04.788Z,100.00
2022-08-26T21:09:33.146Z,100.00
2022-08-26T21:12:00.153Z,100.00
2022-08-26T21:14:27.431Z,100.00
2022-08-26T21:16:54.701Z,100.00
2022-08-26T21:19:22.436Z,100.00
2022-08-26T21:21:50.389Z,100.00
2022-08-26T21:24:18.194Z,100.00
2022-08-26T21:26:46.378Z,100.00
2022-08-26T21:29:14.025Z,100.00
2022-08-26T21:31:46.096Z,100.00
2022-08-26T21:34:19.068Z,100.00
2022-08-26T21:36:47.403Z,100.00
2022-08-26T21:39:15.195Z,100.00
2022-08-26T21:41:44.200Z,100.00
2022-08-26T21:44:13.115Z,100.00
2022-08-26T21:46:41.017Z,100.00
2022-08-26T21:49:11.504Z,100.00
2022-08-26T21:51:43.186Z,100.00
2022-08-26T21:54:11.667Z,100.00
2022-08-26T21:56:45.388Z,100.00
2022-08-26T21:59:14.036Z,100.00
2022-08-26T22:01:41.837Z,100.00
2022-08-26T22:04:10.533Z,100.00
2022-08-26T22:06:44.798Z,100.00
2022-08-26T22:09:13.696Z,100.00
2022-08-26T22:11:41.573Z,100.00
2022-08-26T22:14:09.201Z,100.00
2022-08-26T22:16:36.557Z,100.00
2022-08-26T22:19:03.767Z,100.00
2022-08-26T22:21:30.875Z,100.00
2022-08-26T22:23:58.920Z,100.00
2022-08-26T22:26:31.801Z,100.00
2022-08-26T22:29:00.363Z,100.00
2022-08-26T22:31:38.385Z,100.00
2022-08-26T22:34:11.488Z,100.00
2022-08-26T22:36:44.173Z,100.00
2022-08-26T22:39:15.048Z,100.00
2022-08-26T22:41:43.973Z,100.00
2022-08-26T22:44:12.253Z,100.00
2022-08-26T22:46:41.385Z,100.00
2022-08-26T22:49:10.552Z,100.00
2022-08-26T22:51:38.095Z,100.00
2022-08-26T22:54:06.514Z,100.00
2022-08-26T22:56:34.205Z,100.00
2022-08-26T22:59:01.265Z,100.00
2022-08-26T23:01:28.610Z,100.00
2022-08-26T23:03:55.706Z,100.00
2022-08-26T23:06:22.746Z,100.00
2022-08-26T23:08:49.845Z,100.00
2022-08-26T23:11:17.684Z,100.00
2022-08-26T23:13:44.736Z,100.00
2022-08-26T23:16:12.872Z,100.00
2022-08-26T23:18:41.242Z,100.00
2022-08-26T23:21:10.523Z,100.00
2022-08-26T23:23:38.612Z,100.00
2022-08-26T23:26:07.195Z,100.00
2022-08-26T23:28:38.474Z,100.00
2022-08-26T23:31:06.472Z,100.00
2022-08-26T23:33:51.952Z,100.00
2022-08-26T23:36:22.570Z,100.00
2022-08-26T23:38:52.915Z,100.00
2022-08-26T23:41:23.000Z,100.00
2022-08-26T23:43:51.812Z,100.00
2022-08-26T23:46:19.840Z,100.00
2022-08-26T23:48:47.618Z,100.00
2022-08-26T23:51:33.241Z,100.00
2022-08-26T23:54:00.398Z,100.00
2022-08-26T23:56:27.864Z,100.00
2022-08-26T23:58:56.093Z,100.00
